Cowpens, SC (29330)

9:53 AM EST on December 06, 2016 (GMT -0500)
Clifdale | | Change Station

Elev 784 ft 34.97 °N, 81.83 °W | Updated 13 seconds ago

Light Drizzle
Light Drizzle
44.1 °F
Feels Like 40 °F
N
6.8
Wind Variable Wind from NNW

Today
High -- | Low -- °F
--% Chance of Precip.
Yesterday
High -- | Low -- °F
Precip. -- in
Pressure 29.84 in
Visibility 5.0 miles
Clouds Overcast 700 ft
Windchill 40 °F
Dew Point 44 °F
Humidity 99%
Rainfall 0.43 in
Snow Depth Not available.
7:21 AM 5:15 PM
Waxing Crescent, 42% visible
METAR KSPA 061435Z AUTO 05009G14KT 5SM -DZ OVC007 07/06 A2984 RMK AO2 P0001
Pressure 29.84 in
Visibility 5.0 miles
Clouds Overcast 700 ft
Windchill 40 °F
Dew Point 44 °F
Humidity 99%
Rainfall 0.43 in
Snow Depth Not available.
7:21 AM 5:15 PM
Waxing Crescent, 42% visible
METAR KSPA 061435Z AUTO 05009G14KT 5SM -DZ OVC007 07/06 A2984 RMK AO2 P0001

10-Day Weather Forecast

Almanac

Astronomy

Dec. 06, 2016 Rise Set
Actual Time
Civil Twilight
Nautical Twilight
Astronomical Twilight
Moon
Length of Visible Light
Length of Day
Tomorrow will be .
, % of the Moon is Illuminated

Today's Extremes

State Highs State Lows

Community

WunderPhotos

Upload Photos

1,955,950 photos uploaded!

WunderBlog® & News

Nearby

Air Quality

  Air Quality AQ Index Pollutant
Not available.

Snow Depth

Station Depth Elevation

Earthquake Activity

City Distance Mag. Time & Date
Minimum magnitude displayed is 2.5.

Coastal Water Temperatures

Place Temperature

Stations

Nearby Weather Stations

Station Location Temp. Windchill Dew Point Humidity Wind Precip. Elev Updated Type
                   

Watches & Warnings

There are currently no watches in effect.